sensor_id;sensor_type;location;lat;lon;timestamp;temperature;humidity
16263;DHT22;8239;48.594;8.598;2022-12-18T00:02:03;-13.30;99.90
16263;DHT22;8239;48.594;8.598;2022-12-18T00:04:30;-13.30;99.90
16263;DHT22;8239;48.594;8.598;2022-12-18T00:06:57;-13.30;99.90
16263;DHT22;8239;48.594;8.598;2022-12-18T00:09:24;-13.30;99.90
16263;DHT22;8239;48.594;8.598;2022-12-18T00:11:51;-13.30;99.90
16263;DHT22;8239;48.594;8.598;2022-12-18T00:14:19;-13.40;99.90
16263;DHT22;8239;48.594;8.598;2022-12-18T00:16:46;-13.40;99.90
16263;DHT22;8239;48.594;8.598;2022-12-18T00:19:14;-13.40;99.90
16263;DHT22;8239;48.594;8.598;2022-12-18T00:21:42;-13.50;99.90
16263;DHT22;8239;48.594;8.598;2022-12-18T00:24:10;-13.50;99.90
16263;DHT22;8239;48.594;8.598;2022-12-18T00:26:38;-13.50;99.90
16263;DHT22;8239;48.594;8.598;2022-12-18T00:29:07;-13.50;99.90
16263;DHT22;8239;48.594;8.598;2022-12-18T00:31:37;-13.50;99.90
16263;DHT22;8239;48.594;8.598;2022-12-18T00:34:04;-13.50;99.90
16263;DHT22;8239;48.594;8.598;2022-12-18T00:36:32;-13.50;99.90
16263;DHT22;8239;48.594;8.598;2022-12-18T00:39:01;-13.50;99.90
16263;DHT22;8239;48.594;8.598;2022-12-18T00:41:28;-13.60;99.90
16263;DHT22;8239;48.594;8.598;2022-12-18T00:44:15;-13.60;99.90
16263;DHT22;8239;48.594;8.598;2022-12-18T00:46:44;-13.50;99.90
16263;DHT22;8239;48.594;8.598;2022-12-18T00:49:11;-13.60;99.90
16263;DHT22;8239;48.594;8.598;2022-12-18T00:51:39;-13.60;99.90
16263;DHT22;8239;48.594;8.598;2022-12-18T00:54:06;-13.60;99.90
16263;DHT22;8239;48.594;8.598;2022-12-18T00:56:34;-13.60;99.90
16263;DHT22;8239;48.594;8.598;2022-12-18T00:59:01;-13.60;99.90
16263;DHT22;8239;48.594;8.598;2022-12-18T01:01:28;-13.70;99.90
16263;DHT22;8239;48.594;8.598;2022-12-18T01:04:00;-13.70;99.90
16263;DHT22;8239;48.594;8.598;2022-12-18T01:06:27;-13.70;99.90
16263;DHT22;8239;48.594;8.598;2022-12-18T01:08:54;-13.70;99.90
16263;DHT22;8239;48.594;8.598;2022-12-18T01:11:22;-13.70;99.90
16263;DHT22;8239;48.594;8.598;2022-12-18T01:13:49;-13.70;99.90
16263;DHT22;8239;48.594;8.598;2022-12-18T01:16:17;-13.60;99.90
16263;DHT22;8239;48.594;8.598;2022-12-18T01:18:44;-13.60;99.90
16263;DHT22;8239;48.594;8.598;2022-12-18T01:21:16;-13.50;99.90
16263;DHT22;8239;48.594;8.598;2022-12-18T01:23:43;-13.50;99.90
16263;DHT22;8239;48.594;8.598;2022-12-18T01:26:13;-13.40;99.90
16263;DHT22;8239;48.594;8.598;2022-12-18T01:28:41;-13.40;99.90
16263;DHT22;8239;48.594;8.598;2022-12-18T01:31:11;-13.30;99.90
16263;DHT22;8239;48.594;8.598;2022-12-18T01:33:38;-13.30;99.90
16263;DHT22;8239;48.594;8.598;2022-12-18T01:36:05;-13.20;99.90
16263;DHT22;8239;48.594;8.598;2022-12-18T01:38:33;-13.10;99.90
16263;DHT22;8239;48.594;8.598;2022-12-18T01:41:02;-13.00;99.90
16263;DHT22;8239;48.594;8.598;2022-12-18T01:43:50;-13.00;99.90
16263;DHT22;8239;48.594;8.598;2022-12-18T01:46:18;-12.90;99.90
16263;DHT22;8239;48.594;8.598;2022-12-18T01:48:47;-12.80;99.90
16263;DHT22;8239;48.594;8.598;2022-12-18T01:51:15;-12.80;99.90
16263;DHT22;8239;48.594;8.598;2022-12-18T01:53:45;-12.70;99.90
16263;DHT22;8239;48.594;8.598;2022-12-18T01:56:15;-12.70;99.90
16263;DHT22;8239;48.594;8.598;2022-12-18T01:58:50;-12.70;99.90
16263;DHT22;8239;48.594;8.598;2022-12-18T02:01:18;-12.70;99.90
16263;DHT22;8239;48.594;8.598;2022-12-18T02:03:46;-12.70;99.90
16263;DHT22;8239;48.594;8.598;2022-12-18T02:06:15;-12.80;99.90
16263;DHT22;8239;48.594;8.598;2022-12-18T02:08:52;-12.80;99.90
16263;DHT22;8239;48.594;8.598;2022-12-18T02:11:30;-12.80;99.90
16263;DHT22;8239;48.594;8.598;2022-12-18T02:14:06;-12.80;99.90
16263;DHT22;8239;48.594;8.598;2022-12-18T02:16:42;-12.80;99.90
16263;DHT22;8239;48.594;8.598;2022-12-18T02:19:26;-12.80;99.90
16263;DHT22;8239;48.594;8.598;2022-12-18T02:22:00;-12.80;99.90
16263;DHT22;8239;48.594;8.598;2022-12-18T02:24:40;-12.80;99.90
16263;DHT22;8239;48.594;8.598;2022-12-18T02:27:09;-12.80;99.90
16263;DHT22;8239;48.594;8.598;2022-12-18T02:29:40;-12.80;99.90
16263;DHT22;8239;48.594;8.598;2022-12-18T02:32:11;-12.80;99.90
16263;DHT22;8239;48.594;8.598;2022-12-18T02:34:40;-12.80;99.90
16263;DHT22;8239;48.594;8.598;2022-12-18T02:37:11;-12.90;99.90
16263;DHT22;8239;48.594;8.598;2022-12-18T02:39:39;-12.90;99.90
16263;DHT22;8239;48.594;8.598;2022-12-18T02:42:08;-12.90;99.90
16263;DHT22;8239;48.594;8.598;2022-12-18T02:44:42;-12.90;99.90
16263;DHT22;8239;48.594;8.598;2022-12-18T02:47:10;-12.90;99.90
16263;DHT22;8239;48.594;8.598;2022-12-18T02:49:44;-12.90;99.90
16263;DHT22;8239;48.594;8.598;2022-12-18T02:52:22;-13.00;99.90
16263;DHT22;8239;48.594;8.598;2022-12-18T02:55:00;-13.00;99.90
16263;DHT22;8239;48.594;8.598;2022-12-18T02:57:34;-13.00;99.90
16263;DHT22;8239;48.594;8.598;2022-12-18T03:00:06;-13.00;99.90
16263;DHT22;8239;48.594;8.598;2022-12-18T03:02:39;-13.00;99.90
16263;DHT22;8239;48.594;8.598;2022-12-18T03:05:13;-13.10;99.90
16263;DHT22;8239;48.594;8.598;2022-12-18T03:07:45;-13.10;99.90
16263;DHT22;8239;48.594;8.598;2022-12-18T03:10:16;-13.20;99.90
16263;DHT22;8239;48.594;8.598;2022-12-18T03:12:52;-13.20;99.90
16263;DHT22;8239;48.594;8.598;2022-12-18T03:15:24;-13.30;99.90
16263;DHT22;8239;48.594;8.598;2022-12-18T03:17:56;-13.40;99.90
16263;DHT22;8239;48.594;8.598;2022-12-18T03:20:24;-13.40;99.90
16263;DHT22;8239;48.594;8.598;2022-12-18T03:22:53;-13.40;99.90
16263;DHT22;8239;48.594;8.598;2022-12-18T03:25:22;-13.40;99.90
16263;DHT22;8239;48.594;8.598;2022-12-18T03:27:55;-13.40;99.90
16263;DHT22;8239;48.594;8.598;2022-12-18T03:30:23;-13.40;99.90
16263;DHT22;8239;48.594;8.598;2022-12-18T03:32:53;-13.40;99.90
16263;DHT22;8239;48.594;8.598;2022-12-18T03:35:26;-13.40;99.90
16263;DHT22;8239;48.594;8.598;2022-12-18T03:37:55;-13.40;99.90
16263;DHT22;8239;48.594;8.598;2022-12-18T03:40:26;-13.50;99.90
16263;DHT22;8239;48.594;8.598;2022-12-18T03:43:01;-13.50;99.90
16263;DHT22;8239;48.594;8.598;2022-12-18T03:45:34;-13.60;99.90
16263;DHT22;8239;48.594;8.598;2022-12-18T03:48:05;-13.60;99.90
16263;DHT22;8239;48.594;8.598;2022-12-18T03:50:39;-13.70;99.90
16263;DHT22;8239;48.594;8.598;2022-12-18T03:53:20;-13.70;99.90
16263;DHT22;8239;48.594;8.598;2022-12-18T03:55:51;-13.80;99.90
16263;DHT22;8239;48.594;8.598;2022-12-18T03:58:23;-13.80;99.90
16263;DHT22;8239;48.594;8.598;2022-12-18T04:00:52;-13.90;99.90
16263;DHT22;8239;48.594;8.598;2022-12-18T04:03:23;-13.90;99.90
16263;DHT22;8239;48.594;8.598;2022-12-18T04:05:51;-13.90;99.90
16263;DHT22;8239;48.594;8.598;2022-12-18T04:08:20;-13.90;99.90
16263;DHT22;8239;48.594;8.598;2022-12-18T04:10:47;-13.90;99.90
16263;DHT22;8239;48.594;8.598;2022-12-18T04:13:23;-13.90;99.90
16263;DHT22;8239;48.594;8.598;2022-12-18T04:15:51;-14.00;99.90
16263;DHT22;8239;48.594;8.598;2022-12-18T04:18:18;-14.00;99.90
16263;DHT22;8239;48.594;8.598;2022-12-18T04:20:45;-14.00;99.90
16263;DHT22;8239;48.594;8.598;2022-12-18T04:23:12;-14.00;99.90
16263;DHT22;8239;48.594;8.598;2022-12-18T04:25:39;-14.00;99.90
16263;DHT22;8239;48.594;8.598;2022-12-18T04:28:06;-14.00;99.90
16263;DHT22;8239;48.594;8.598;2022-12-18T04:30:34;-14.00;99.90
16263;DHT22;8239;48.594;8.598;2022-12-18T04:33:01;-14.00;99.90
16263;DHT22;8239;48.594;8.598;2022-12-18T04:35:28;-14.00;99.90
16263;DHT22;8239;48.594;8.598;2022-12-18T04:37:55;-13.90;99.90
16263;DHT22;8239;48.594;8.598;2022-12-18T04:40:22;-14.00;99.90
16263;DHT22;8239;48.594;8.598;2022-12-18T04:42:49;-14.00;99.90
16263;DHT22;8239;48.594;8.598;2022-12-18T04:45:16;-13.90;99.90
16263;DHT22;8239;48.594;8.598;2022-12-18T04:47:44;-13.90;99.90
16263;DHT22;8239;48.594;8.598;2022-12-18T04:50:11;-13.80;99.90
16263;DHT22;8239;48.594;8.598;2022-12-18T04:52:38;-13.60;99.90
16263;DHT22;8239;48.594;8.598;2022-12-18T04:55:06;-13.40;99.90
16263;DHT22;8239;48.594;8.598;2022-12-18T04:57:33;-13.20;99.90
16263;DHT22;8239;48.594;8.598;2022-12-18T05:00:00;-12.90;99.90
16263;DHT22;8239;48.594;8.598;2022-12-18T05:02:27;-12.60;99.90
16263;DHT22;8239;48.594;8.598;2022-12-18T05:04:55;-12.20;99.90
16263;DHT22;8239;48.594;8.598;2022-12-18T05:07:22;-11.90;99.90
16263;DHT22;8239;48.594;8.598;2022-12-18T05:09:49;-11.70;99.90
16263;DHT22;8239;48.594;8.598;2022-12-18T05:12:16;-11.40;99.90
16263;DHT22;8239;48.594;8.598;2022-12-18T05:14:43;-11.20;99.90
16263;DHT22;8239;48.594;8.598;2022-12-18T05:17:10;-11.10;99.90
16263;DHT22;8239;48.594;8.598;2022-12-18T05:19:37;-10.90;99.90
16263;DHT22;8239;48.594;8.598;2022-12-18T05:22:05;-10.70;99.90
16263;DHT22;8239;48.594;8.598;2022-12-18T05:24:35;-10.60;99.90
16263;DHT22;8239;48.594;8.598;2022-12-18T05:27:02;-10.40;99.90
16263;DHT22;8239;48.594;8.598;2022-12-18T05:29:29;-10.30;99.90
16263;DHT22;8239;48.594;8.598;2022-12-18T05:31:56;-10.20;99.90
16263;DHT22;8239;48.594;8.598;2022-12-18T05:34:23;-10.10;99.90
16263;DHT22;8239;48.594;8.598;2022-12-18T05:36:50;-10.00;99.90
16263;DHT22;8239;48.594;8.598;2022-12-18T05:39:19;-9.90;99.90
16263;DHT22;8239;48.594;8.598;2022-12-18T05:41:46;-9.80;99.90
16263;DHT22;8239;48.594;8.598;2022-12-18T05:44:13;-9.70;99.90
16263;DHT22;8239;48.594;8.598;2022-12-18T05:46:40;-9.60;99.90
16263;DHT22;8239;48.594;8.598;2022-12-18T05:49:09;-9.60;99.90
16263;DHT22;8239;48.594;8.598;2022-12-18T05:51:36;-9.50;99.90
16263;DHT22;8239;48.594;8.598;2022-12-18T05:54:03;-9.50;99.90
16263;DHT22;8239;48.594;8.598;2022-12-18T05:56:31;-9.40;99.90
16263;DHT22;8239;48.594;8.598;2022-12-18T05:58:58;-9.50;99.90
16263;DHT22;8239;48.594;8.598;2022-12-18T06:01:26;-9.50;99.90
16263;DHT22;8239;48.594;8.598;2022-12-18T06:03:53;-9.40;99.90
16263;DHT22;8239;48.594;8.598;2022-12-18T06:06:23;-9.40;99.90
16263;DHT22;8239;48.594;8.598;2022-12-18T06:08:51;-9.30;99.90
16263;DHT22;8239;48.594;8.598;2022-12-18T06:11:19;-9.00;99.90
16263;DHT22;8239;48.594;8.598;2022-12-18T06:13:49;-8.30;99.90
16263;DHT22;8239;48.594;8.598;2022-12-18T06:16:16;-7.70;99.90
16263;DHT22;8239;48.594;8.598;2022-12-18T06:18:43;-7.50;99.90
16263;DHT22;8239;48.594;8.598;2022-12-18T06:21:10;-7.60;99.90
16263;DHT22;8239;48.594;8.598;2022-12-18T06:23:37;-7.70;99.90
16263;DHT22;8239;48.594;8.598;2022-12-18T06:26:06;-7.90;99.90
16263;DHT22;8239;48.594;8.598;2022-12-18T06:28:33;-8.10;99.90
16263;DHT22;8239;48.594;8.598;2022-12-18T06:31:02;-8.20;99.90
16263;DHT22;8239;48.594;8.598;2022-12-18T06:33:30;-8.40;99.90
16263;DHT22;8239;48.594;8.598;2022-12-18T06:36:00;-8.50;99.90
16263;DHT22;8239;48.594;8.598;2022-12-18T06:38:27;-8.60;99.90
16263;DHT22;8239;48.594;8.598;2022-12-18T06:40:54;-8.70;99.90
16263;DHT22;8239;48.594;8.598;2022-12-18T06:43:22;-8.80;99.90
16263;DHT22;8239;48.594;8.598;2022-12-18T06:45:49;-8.80;99.90
16263;DHT22;8239;48.594;8.598;2022-12-18T06:48:19;-8.90;99.90
16263;DHT22;8239;48.594;8.598;2022-12-18T06:50:46;-9.00;99.90
16263;DHT22;8239;48.594;8.598;2022-12-18T06:53:13;-9.00;99.90
16263;DHT22;8239;48.594;8.598;2022-12-18T06:55:40;-9.00;99.90
16263;DHT22;8239;48.594;8.598;2022-12-18T06:58:07;-9.00;99.90
16263;DHT22;8239;48.594;8.598;2022-12-18T07:00:34;-9.00;99.90
16263;DHT22;8239;48.594;8.598;2022-12-18T07:03:01;-9.00;99.90
16263;DHT22;8239;48.594;8.598;2022-12-18T07:05:30;-9.00;99.90
16263;DHT22;8239;48.594;8.598;2022-12-18T07:07:57;-8.90;99.90
16263;DHT22;8239;48.594;8.598;2022-12-18T07:10:24;-8.80;99.90
16263;DHT22;8239;48.594;8.598;2022-12-18T07:12:51;-8.80;99.90
16263;DHT22;8239;48.594;8.598;2022-12-18T07:15:18;-8.70;99.90
16263;DHT22;8239;48.594;8.598;2022-12-18T07:17:45;-8.60;99.90
16263;DHT22;8239;48.594;8.598;2022-12-18T07:20:12;-8.60;99.90
16263;DHT22;8239;48.594;8.598;2022-12-18T07:22:40;-8.50;99.90
16263;DHT22;8239;48.594;8.598;2022-12-18T07:25:07;-8.50;99.90
16263;DHT22;8239;48.594;8.598;2022-12-18T07:27:34;-8.40;99.90
16263;DHT22;8239;48.594;8.598;2022-12-18T07:30:02;-8.40;99.90
16263;DHT22;8239;48.594;8.598;2022-12-18T07:32:30;-8.30;99.90
16263;DHT22;8239;48.594;8.598;2022-12-18T07:34:57;-8.20;99.90
16263;DHT22;8239;48.594;8.598;2022-12-18T07:37:24;-8.20;99.90
16263;DHT22;8239;48.594;8.598;2022-12-18T07:39:52;-8.10;99.90
16263;DHT22;8239;48.594;8.598;2022-12-18T07:42:19;-8.00;99.90
16263;DHT22;8239;48.594;8.598;2022-12-18T07:44:58;-7.90;99.90
16263;DHT22;8239;48.594;8.598;2022-12-18T07:47:26;-7.80;99.90
16263;DHT22;8239;48.594;8.598;2022-12-18T07:49:54;-7.80;99.90
16263;DHT22;8239;48.594;8.598;2022-12-18T07:52:21;-7.70;99.90
16263;DHT22;8239;48.594;8.598;2022-12-18T07:54:48;-7.60;99.90
16263;DHT22;8239;48.594;8.598;2022-12-18T07:57:17;-7.50;99.90
16263;DHT22;8239;48.594;8.598;2022-12-18T07:59:44;-7.40;99.90
16263;DHT22;8239;48.594;8.598;2022-12-18T08:02:11;-7.30;99.90
16263;DHT22;8239;48.594;8.598;2022-12-18T08:04:39;-7.20;99.90
16263;DHT22;8239;48.594;8.598;2022-12-18T08:07:06;-7.00;99.90
16263;DHT22;8239;48.594;8.598;2022-12-18T08:09:33;-6.90;99.90
16263;DHT22;8239;48.594;8.598;2022-12-18T08:12:00;-6.80;99.90
16263;DHT22;8239;48.594;8.598;2022-12-18T08:14:28;-6.70;99.90
16263;DHT22;8239;48.594;8.598;2022-12-18T08:16:55;-6.60;99.90
16263;DHT22;8239;48.594;8.598;2022-12-18T08:19:22;-6.50;99.90
16263;DHT22;8239;48.594;8.598;2022-12-18T08:21:49;-6.40;99.90
16263;DHT22;8239;48.594;8.598;2022-12-18T08:24:16;-6.30;99.90
16263;DHT22;8239;48.594;8.598;2022-12-18T08:26:43;-6.20;99.90
16263;DHT22;8239;48.594;8.598;2022-12-18T08:29:11;-6.10;99.90
16263;DHT22;8239;48.594;8.598;2022-12-18T08:31:40;-6.00;99.90
16263;DHT22;8239;48.594;8.598;2022-12-18T08:34:07;-5.90;99.90
16263;DHT22;8239;48.594;8.598;2022-12-18T08:36:34;-5.80;99.90
16263;DHT22;8239;48.594;8.598;2022-12-18T08:39:01;-5.70;99.90
16263;DHT22;8239;48.594;8.598;2022-12-18T08:41:28;-5.60;99.90
16263;DHT22;8239;48.594;8.598;2022-12-18T08:43:55;-5.50;99.90
16263;DHT22;8239;48.594;8.598;2022-12-18T08:46:42;-5.40;99.90
16263;DHT22;8239;48.594;8.598;2022-12-18T08:49:10;-5.30;99.90
16263;DHT22;8239;48.594;8.598;2022-12-18T08:51:37;-5.20;99.90
16263;DHT22;8239;48.594;8.598;2022-12-18T08:54:05;-5.10;99.90
16263;DHT22;8239;48.594;8.598;2022-12-18T08:56:32;-5.00;99.90
16263;DHT22;8239;48.594;8.598;2022-12-18T08:58:59;-4.90;99.90
16263;DHT22;8239;48.594;8.598;2022-12-18T09:01:26;-4.80;99.90
16263;DHT22;8239;48.594;8.598;2022-12-18T09:03:55;-4.70;99.90
16263;DHT22;8239;48.594;8.598;2022-12-18T09:06:23;-4.60;99.90
16263;DHT22;8239;48.594;8.598;2022-12-18T09:08:51;-4.60;99.90
16263;DHT22;8239;48.594;8.598;2022-12-18T09:11:21;-4.50;99.90
16263;DHT22;8239;48.594;8.598;2022-12-18T09:13:48;-4.40;99.90
16263;DHT22;8239;48.594;8.598;2022-12-18T09:16:16;-4.40;99.90
16263;DHT22;8239;48.594;8.598;2022-12-18T09:18:43;-4.40;99.90
16263;DHT22;8239;48.594;8.598;2022-12-18T09:21:14;-4.40;99.90
16263;DHT22;8239;48.594;8.598;2022-12-18T09:23:41;-4.40;99.90
16263;DHT22;8239;48.594;8.598;2022-12-18T09:26:09;-4.30;99.90
16263;DHT22;8239;48.594;8.598;2022-12-18T09:28:36;-4.30;99.90
16263;DHT22;8239;48.594;8.598;2022-12-18T09:31:07;-4.20;99.90
16263;DHT22;8239;48.594;8.598;2022-12-18T09:33:35;-4.20;99.90
16263;DHT22;8239;48.594;8.598;2022-12-18T09:36:04;-4.10;99.90
16263;DHT22;8239;48.594;8.598;2022-12-18T09:38:34;-4.10;99.90
16263;DHT22;8239;48.594;8.598;2022-12-18T09:41:05;-3.90;99.90
16263;DHT22;8239;48.594;8.598;2022-12-18T09:43:43;-3.80;99.90
16263;DHT22;8239;48.594;8.598;2022-12-18T09:46:19;-3.70;99.90
16263;DHT22;8239;48.594;8.598;2022-12-18T09:48:51;-3.50;99.90
16263;DHT22;8239;48.594;8.598;2022-12-18T09:51:22;-3.40;99.90
16263;DHT22;8239;48.594;8.598;2022-12-18T09:53:55;-3.40;99.90
16263;DHT22;8239;48.594;8.598;2022-12-18T09:56:25;-3.30;99.90
16263;DHT22;8239;48.594;8.598;2022-12-18T09:58:57;-3.30;99.90
16263;DHT22;8239;48.594;8.598;2022-12-18T10:01:26;-3.20;99.90
16263;DHT22;8239;48.594;8.598;2022-12-18T10:03:54;-3.20;99.90
16263;DHT22;8239;48.594;8.598;2022-12-18T10:06:23;-3.10;99.90
16263;DHT22;8239;48.594;8.598;2022-12-18T10:09:01;-3.00;99.90
16263;DHT22;8239;48.594;8.598;2022-12-18T10:11:37;-2.90;99.90
16263;DHT22;8239;48.594;8.598;2022-12-18T10:14:12;-2.80;99.90
16263;DHT22;8239;48.594;8.598;2022-12-18T10:16:51;-2.70;99.90
16263;DHT22;8239;48.594;8.598;2022-12-18T10:19:32;-2.60;99.90
16263;DHT22;8239;48.594;8.598;2022-12-18T10:22:11;-2.50;99.90
16263;DHT22;8239;48.594;8.598;2022-12-18T10:24:50;-2.30;99.90
16263;DHT22;8239;48.594;8.598;2022-12-18T10:27:23;-2.00;99.90
16263;DHT22;8239;48.594;8.598;2022-12-18T10:29:50;-1.80;99.90
16263;DHT22;8239;48.594;8.598;2022-12-18T10:32:20;-1.60;99.90
16263;DHT22;8239;48.594;8.598;2022-12-18T10:34:49;-1.50;99.90
16263;DHT22;8239;48.594;8.598;2022-12-18T10:37:18;-1.30;99.90
16263;DHT22;8239;48.594;8.598;2022-12-18T10:40:06;-1.00;99.90
16263;DHT22;8239;48.594;8.598;2022-12-18T10:42:34;-0.50;99.90
16263;DHT22;8239;48.594;8.598;2022-12-18T10:45:03;0.10;99.90
16263;DHT22;8239;48.594;8.598;2022-12-18T10:47:34;1.00;99.90
16263;DHT22;8239;48.594;8.598;2022-12-18T10:50:01;2.30;99.90
16263;DHT22;8239;48.594;8.598;2022-12-18T10:52:28;3.50;99.90
16263;DHT22;8239;48.594;8.598;2022-12-18T10:54:59;4.30;99.90
16263;DHT22;8239;48.594;8.598;2022-12-18T10:57:33;5.30;99.30
16263;DHT22;8239;48.594;8.598;2022-12-18T11:00:21;6.60;98.00
16263;DHT22;8239;48.594;8.598;2022-12-18T11:02:49;7.90;89.40
16263;DHT22;8239;48.594;8.598;2022-12-18T11:05:26;9.30;87.10
16263;DHT22;8239;48.594;8.598;2022-12-18T11:07:53;10.60;69.40
16263;DHT22;8239;48.594;8.598;2022-12-18T11:10:24;11.10;56.90
16263;DHT22;8239;48.594;8.598;2022-12-18T11:12:52;11.80;54.20
16263;DHT22;8239;48.594;8.598;2022-12-18T11:15:20;12.30;49.50
16263;DHT22;8239;48.594;8.598;2022-12-18T11:17:49;12.30;46.20
16263;DHT22;8239;48.594;8.598;2022-12-18T11:20:29;12.40;47.70
16263;DHT22;8239;48.594;8.598;2022-12-18T11:22:59;12.60;46.40
16263;DHT22;8239;48.594;8.598;2022-12-18T11:25:31;13.00;43.90
16263;DHT22;8239;48.594;8.598;2022-12-18T11:28:00;13.20;45.90
16263;DHT22;8239;48.594;8.598;2022-12-18T11:30:29;13.30;42.10
16263;DHT22;8239;48.594;8.598;2022-12-18T11:33:00;13.30;44.10
16263;DHT22;8239;48.594;8.598;2022-12-18T11:35:37;13.70;44.60
16263;DHT22;8239;48.594;8.598;2022-12-18T11:38:13;13.50;40.40
16263;DHT22;8239;48.594;8.598;2022-12-18T11:40:49;13.70;41.70
16263;DHT22;8239;48.594;8.598;2022-12-18T11:43:20;13.00;39.60
16263;DHT22;8239;48.594;8.598;2022-12-18T11:45:52;12.60;42.00
16263;DHT22;8239;48.594;8.598;2022-12-18T11:48:23;12.30;42.60
16263;DHT22;8239;48.594;8.598;2022-12-18T11:50:53;12.20;44.70
16263;DHT22;8239;48.594;8.598;2022-12-18T11:53:22;12.10;44.30
16263;DHT22;8239;48.594;8.598;2022-12-18T11:56:00;12.30;45.70
16263;DHT22;8239;48.594;8.598;2022-12-18T11:58:47;12.50;45.30
16263;DHT22;8239;48.594;8.598;2022-12-18T12:01:22;12.90;46.00
16263;DHT22;8239;48.594;8.598;2022-12-18T12:04:22;13.20;44.70
16263;DHT22;8239;48.594;8.598;2022-12-18T12:06:58;13.40;44.10
16263;DHT22;8239;48.594;8.598;2022-12-18T12:09:37;13.60;44.10
16263;DHT22;8239;48.594;8.598;2022-12-18T12:12:20;13.60;43.30
16263;DHT22;8239;48.594;8.598;2022-12-18T12:14:57;13.20;41.20
16263;DHT22;8239;48.594;8.598;2022-12-18T12:17:36;12.40;40.40
16263;DHT22;8239;48.594;8.598;2022-12-18T12:20:13;11.70;42.60
16263;DHT22;8239;48.594;8.598;2022-12-18T12:22:48;11.00;43.90
16263;DHT22;8239;48.594;8.598;2022-12-18T12:25:26;10.50;44.10
16263;DHT22;8239;48.594;8.598;2022-12-18T12:28:05;10.00;44.40
16263;DHT22;8239;48.594;8.598;2022-12-18T12:30:46;9.70;46.60
16263;DHT22;8239;48.594;8.598;2022-12-18T12:33:26;9.50;47.10
16263;DHT22;8239;48.594;8.598;2022-12-18T12:36:05;9.50;48.60
16263;DHT22;8239;48.594;8.598;2022-12-18T12:38:35;9.70;49.30
16263;DHT22;8239;48.594;8.598;2022-12-18T12:41:06;9.90;48.90
16263;DHT22;8239;48.594;8.598;2022-12-18T12:43:58;10.30;47.80
16263;DHT22;8239;48.594;8.598;2022-12-18T12:46:26;10.50;45.90
16263;DHT22;8239;48.594;8.598;2022-12-18T12:48:56;10.80;47.10
16263;DHT22;8239;48.594;8.598;2022-12-18T12:51:26;11.00;45.20
16263;DHT22;8239;48.594;8.598;2022-12-18T12:53:58;10.80;43.80
16263;DHT22;8239;48.594;8.598;2022-12-18T12:56:36;10.90;46.90
16263;DHT22;8239;48.594;8.598;2022-12-18T12:59:11;11.00;46.50
16263;DHT22;8239;48.594;8.598;2022-12-18T13:01:46;11.00;45.00
16263;DHT22;8239;48.594;8.598;2022-12-18T13:04:21;10.80;45.10
16263;DHT22;8239;48.594;8.598;2022-12-18T13:06:55;10.30;45.60
16263;DHT22;8239;48.594;8.598;2022-12-18T13:09:30;9.80;46.90
16263;DHT22;8239;48.594;8.598;2022-12-18T13:12:02;9.20;48.40
16263;DHT22;8239;48.594;8.598;2022-12-18T13:14:48;8.50;48.70
16263;DHT22;8239;48.594;8.598;2022-12-18T13:17:17;7.80;50.60
16263;DHT22;8239;48.594;8.598;2022-12-18T13:20:04;7.40;52.60
16263;DHT22;8239;48.594;8.598;2022-12-18T13:22:35;6.70;52.50
16263;DHT22;8239;48.594;8.598;2022-12-18T13:25:04;6.30;53.90
16263;DHT22;8239;48.594;8.598;2022-12-18T13:28:08;5.70;54.90
16263;DHT22;8239;48.594;8.598;2022-12-18T13:30:49;5.20;56.30
16263;DHT22;8239;48.594;8.598;2022-12-18T13:33:43;4.80;57.90
16263;DHT22;8239;48.594;8.598;2022-12-18T13:36:16;4.60;58.70
16263;DHT22;8239;48.594;8.598;2022-12-18T13:41:53;4.20;60.50
16263;DHT22;8239;48.594;8.598;2022-12-18T13:45:01;3.90;61.90
16263;DHT22;8239;48.594;8.598;2022-12-18T13:47:32;3.70;63.20
16263;DHT22;8239;48.594;8.598;2022-12-18T13:50:02;3.60;63.40
16263;DHT22;8239;48.594;8.598;2022-12-18T13:52:37;3.50;63.70
16263;DHT22;8239;48.594;8.598;2022-12-18T13:55:14;3.20;63.30
16263;DHT22;8239;48.594;8.598;2022-12-18T13:57:42;2.60;64.50
16263;DHT22;8239;48.594;8.598;2022-12-18T14:00:24;2.10;66.30
16263;DHT22;8239;48.594;8.598;2022-12-18T14:02:55;1.70;68.70
16263;DHT22;8239;48.594;8.598;2022-12-18T14:05:23;1.40;70.10
16263;DHT22;8239;48.594;8.598;2022-12-18T14:07:51;1.20;71.20
16263;DHT22;8239;48.594;8.598;2022-12-18T14:10:19;1.00;73.20
16263;DHT22;8239;48.594;8.598;2022-12-18T14:12:48;0.90;75.30
16263;DHT22;8239;48.594;8.598;2022-12-18T14:15:30;0.80;77.50
16263;DHT22;8239;48.594;8.598;2022-12-18T14:18:01;0.70;79.50
16263;DHT22;8239;48.594;8.598;2022-12-18T14:20:31;0.70;80.90
16263;DHT22;8239;48.594;8.598;2022-12-18T14:22:59;0.70;82.10
16263;DHT22;8239;48.594;8.598;2022-12-18T14:25:27;0.70;82.60
16263;DHT22;8239;48.594;8.598;2022-12-18T14:28:07;0.70;83.50
16263;DHT22;8239;48.594;8.598;2022-12-18T14:30:37;0.60;83.90
16263;DHT22;8239;48.594;8.598;2022-12-18T14:33:10;0.40;85.10
16263;DHT22;8239;48.594;8.598;2022-12-18T14:35:39;0.30;86.20
16263;DHT22;8239;48.594;8.598;2022-12-18T14:38:26;0.20;87.10
16263;DHT22;8239;48.594;8.598;2022-12-18T14:40:55;0.00;88.00
16263;DHT22;8239;48.594;8.598;2022-12-18T14:43:27;-0.10;88.30
16263;DHT22;8239;48.594;8.598;2022-12-18T14:45:55;-0.30;88.70
16263;DHT22;8239;48.594;8.598;2022-12-18T14:48:35;-0.50;89.40
16263;DHT22;8239;48.594;8.598;2022-12-18T14:51:05;-0.70;90.00
16263;DHT22;8239;48.594;8.598;2022-12-18T14:53:37;-0.90;90.40
16263;DHT22;8239;48.594;8.598;2022-12-18T14:56:17;-1.00;90.90
16263;DHT22;8239;48.594;8.598;2022-12-18T14:58:49;-1.20;91.40
16263;DHT22;8239;48.594;8.598;2022-12-18T15:01:23;-1.40;92.10
16263;DHT22;8239;48.594;8.598;2022-12-18T15:03:53;-1.60;92.70
16263;DHT22;8239;48.594;8.598;2022-12-18T15:06:29;-1.80;93.40
16263;DHT22;8239;48.594;8.598;2022-12-18T15:08:57;-2.00;94.00
16263;DHT22;8239;48.594;8.598;2022-12-18T15:11:32;-2.20;94.60
16263;DHT22;8239;48.594;8.598;2022-12-18T15:14:05;-2.30;95.60
16263;DHT22;8239;48.594;8.598;2022-12-18T15:16:51;-2.50;96.80
16263;DHT22;8239;48.594;8.598;2022-12-18T15:19:21;-2.70;97.20
16263;DHT22;8239;48.594;8.598;2022-12-18T15:21:48;-2.90;97.60
16263;DHT22;8239;48.594;8.598;2022-12-18T15:24:20;-3.10;98.00
16263;DHT22;8239;48.594;8.598;2022-12-18T15:26:48;-3.20;98.10
16263;DHT22;8239;48.594;8.598;2022-12-18T15:29:19;-3.50;98.20
16263;DHT22;8239;48.594;8.598;2022-12-18T15:32:01;-3.70;98.40
16263;DHT22;8239;48.594;8.598;2022-12-18T15:34:32;-3.90;98.70
16263;DHT22;8239;48.594;8.598;2022-12-18T15:36:59;-4.20;99.20
16263;DHT22;8239;48.594;8.598;2022-12-18T15:39:26;-4.30;99.70
16263;DHT22;8239;48.594;8.598;2022-12-18T15:41:53;-4.50;99.90
16263;DHT22;8239;48.594;8.598;2022-12-18T15:44:38;-4.60;99.90
16263;DHT22;8239;48.594;8.598;2022-12-18T15:47:10;-4.70;99.90
16263;DHT22;8239;48.594;8.598;2022-12-18T15:49:39;-4.70;99.90
16263;DHT22;8239;48.594;8.598;2022-12-18T15:52:06;-4.70;99.90
16263;DHT22;8239;48.594;8.598;2022-12-18T15:54:33;-4.70;99.90
16263;DHT22;8239;48.594;8.598;2022-12-18T15:57:32;-4.70;99.90
16263;DHT22;8239;48.594;8.598;2022-12-18T15:59:59;-4.70;99.90
16263;DHT22;8239;48.594;8.598;2022-12-18T16:02:26;-4.70;99.90
16263;DHT22;8239;48.594;8.598;2022-12-18T16:04:57;-4.60;99.90
16263;DHT22;8239;48.594;8.598;2022-12-18T16:07:24;-4.60;99.90
16263;DHT22;8239;48.594;8.598;2022-12-18T16:09:51;-4.60;99.90